Paya Lebar, Singapore
Current Conditions -  °F | °C
As of 12:00 PM on Wednesday 22 Oct 2014 (Local Time) from WSAP Reporting Station
Moderate Rain Moderate Rain  
Wind Chill: 81°   Ceiling: 16000
Heat Index: 86°   Visibility: 4mi
Dew Point: 75°   Wind: 6mph
Humidity: 84%   Direction: 120°ESE
Pressure: 29.94"   Gusts: NA
Location:  1.36°N, 103.91°E
Report Text: WSAP 220400Z 12005KT 7000 RA FEW016 BKN160 27/24 Q1014
Loading
Personal Weather Stations






























Interactive Weather Map
Tropical Storm Tracking
New forecast layout! Learn more

10-Day Weather Forecast

Advertisements
Track Severe Weather on mobile